createdAt,value
2018-06-22T07:50:29.051Z,82.21
2018-06-22T07:52:06.097Z,82.95
2018-06-22T07:53:41.791Z,82.92
2018-06-22T07:55:20.288Z,83.57
2018-06-22T07:57:00.094Z,83.41
2018-06-22T07:58:35.484Z,83.75
2018-06-22T08:00:10.470Z,84.06
2018-06-22T08:01:45.312Z,83.56
2018-06-22T08:03:23.654Z,84.05
2018-06-22T08:06:49.974Z,84.35
2018-06-22T08:08:44.187Z,84.35
2018-06-22T08:10:22.181Z,84.34
2018-06-22T08:11:58.915Z,84.35
2018-06-22T08:13:36.202Z,84.59
2018-06-22T08:15:15.892Z,84.64
2018-06-22T08:16:53.053Z,84.94
2018-06-22T08:18:28.538Z,84.69
2018-06-22T08:20:03.469Z,85.14
2018-06-22T08:21:39.300Z,84.36
2018-06-22T08:25:18.317Z,84.25
2018-06-22T08:26:54.087Z,84.36
2018-06-22T08:28:29.651Z,85.13
2018-06-22T08:30:09.456Z,85.38
2018-06-22T08:31:45.912Z,84.53
2018-06-22T08:33:22.063Z,84.11
2018-06-22T08:34:57.324Z,84.69
2018-06-22T08:36:33.994Z,84.41
2018-06-22T08:38:08.693Z,84.43
2018-06-22T08:39:44.451Z,84.58
2018-06-22T08:41:20.603Z,84.37
2018-06-22T08:42:57.501Z,83.71
2018-06-22T08:44:32.677Z,84.52
2018-06-22T08:46:07.998Z,84.42
2018-06-22T08:47:53.381Z,83.99
2018-06-22T08:49:32.950Z,84.49
2018-06-22T08:51:08.830Z,83.58
2018-06-22T08:52:43.881Z,84.19
2018-06-22T08:54:18.681Z,84.56
2018-06-22T08:55:55.446Z,83.61
2018-06-22T08:57:30.219Z,83.47
2018-06-22T08:59:05.833Z,83.99
2018-06-22T09:00:40.694Z,84.81
2018-06-22T09:02:16.423Z,84.38
2018-06-22T09:03:51.294Z,84.23
2018-06-22T09:05:26.016Z,84.04
2018-06-22T09:07:01.479Z,84.22
2018-06-22T09:08:39.025Z,83.81
2018-06-22T09:10:13.923Z,83.78
2018-06-22T09:11:48.695Z,84.87
2018-06-22T09:13:24.325Z,83.21
2018-06-22T09:14:59.887Z,84.30
2018-06-22T09:16:42.608Z,83.60
2018-06-22T09:18:23.268Z,83.69
2018-06-22T09:19:58.314Z,83.54
2018-06-22T09:21:34.435Z,82.75
2018-06-22T09:23:10.689Z,80.62
2018-06-22T09:24:47.214Z,80.73
2018-06-22T09:26:25.346Z,80.95
2018-06-22T09:28:00.543Z,81.96
2018-06-22T09:29:35.512Z,81.53
2018-06-22T09:31:10.706Z,81.32
2018-06-22T09:32:46.770Z,81.06
2018-06-22T09:34:22.713Z,81.47
2018-06-22T09:36:01.843Z,80.26
2018-06-22T09:37:37.148Z,81.46
2018-06-22T09:39:15.033Z,82.16
2018-06-22T09:40:50.453Z,81.44
2018-06-22T09:42:26.253Z,81.36
2018-06-22T09:44:06.744Z,81.00
2018-06-22T09:45:42.634Z,80.16
2018-06-22T09:47:17.921Z,80.80
2018-06-22T09:48:56.759Z,81.03
2018-06-22T09:50:34.477Z,80.64
2018-06-22T09:52:10.472Z,80.22
2018-06-22T09:53:53.793Z,78.75
2018-06-22T09:55:37.389Z,77.40
2018-06-22T09:57:12.794Z,77.40
2018-06-22T09:58:49.864Z,73.96
2018-06-22T10:00:27.711Z,75.28
2018-06-22T10:02:03.160Z,74.89
2018-06-22T10:04:00.732Z,73.18
2018-06-22T10:05:36.848Z,74.50
2018-06-22T10:07:11.835Z,75.46
2018-06-22T10:08:48.633Z,74.74
2018-06-22T10:10:25.630Z,74.82
2018-06-22T10:12:02.843Z,72.08
2018-06-22T10:13:37.793Z,73.72
2018-06-22T10:15:20.350Z,72.80
2018-06-22T10:16:56.752Z,72.87
2018-06-22T10:18:32.403Z,71.91
2018-06-22T10:20:08.827Z,73.18
2018-06-22T10:21:54.922Z,70.18
2018-06-22T10:23:30.070Z,70.45
2018-06-22T10:25:05.453Z,71.84
2018-06-22T10:26:48.434Z,68.96
2018-06-22T10:28:24.622Z,70.08
2018-06-22T10:30:02.312Z,69.18
2018-06-22T10:31:37.456Z,65.36
2018-06-22T10:33:15.425Z,66.70
2018-06-22T10:34:52.674Z,67.84
2018-06-22T10:36:28.534Z,66.98
2018-06-22T10:38:04.039Z,67.12
2018-06-22T10:39:41.840Z,66.75
2018-06-22T10:41:17.808Z,67.47
2018-06-22T10:43:29.016Z,68.03
2018-06-22T10:45:07.194Z,68.93
2018-06-22T10:46:45.617Z,71.23
2018-06-22T10:48:26.603Z,72.55
2018-06-22T10:50:02.536Z,74.29
2018-06-22T10:51:39.361Z,75.08
2018-06-22T10:53:15.059Z,74.32
2018-06-22T10:54:51.631Z,75.00
2018-06-22T10:56:28.332Z,76.25
2018-06-22T10:58:03.819Z,76.95
2018-06-22T10:59:39.648Z,76.89
2018-06-22T11:01:17.407Z,77.37
2018-06-22T11:02:54.036Z,76.44
2018-06-22T11:04:30.431Z,77.02
2018-06-22T11:06:09.047Z,78.21
2018-06-22T11:07:44.281Z,76.90
2018-06-22T11:09:27.743Z,76.65
2018-06-22T11:11:13.107Z,76.87
2018-06-22T11:12:55.376Z,75.14
2018-06-22T11:14:43.914Z,74.19
2018-06-22T11:16:23.477Z,73.79
2018-06-22T11:18:03.430Z,74.93
2018-06-22T11:21:46.312Z,73.88
2018-06-22T11:23:45.379Z,75.29
2018-06-22T11:25:29.273Z,76.01
2018-06-22T11:27:08.305Z,77.69
2018-06-22T11:28:45.337Z,76.67
2018-06-22T11:30:22.325Z,76.68
2018-06-22T11:32:10.082Z,78.26
2018-06-22T11:33:51.829Z,78.25
2018-06-22T11:35:31.400Z,78.60
2018-06-22T11:37:09.471Z,78.82
2018-06-22T11:38:44.366Z,77.65
2018-06-22T11:40:29.851Z,78.30
2018-06-22T11:42:08.262Z,76.68
2018-06-22T11:43:48.785Z,77.28
2018-06-22T11:47:19.853Z,73.65
2018-06-22T11:49:03.783Z,72.16
2018-06-22T11:50:40.808Z,73.61
2018-06-22T11:52:18.022Z,68.83
2018-06-22T11:53:55.502Z,70.53
2018-06-22T11:55:34.720Z,71.53
2018-06-22T11:57:15.202Z,66.06
2018-06-22T11:58:53.563Z,67.06
2018-06-22T12:00:29.788Z,66.05
2018-06-22T12:02:10.615Z,67.78
2018-06-22T12:03:49.524Z,68.04
2018-06-22T12:05:28.646Z,68.27
2018-06-22T12:07:10.294Z,69.18
2018-06-22T12:08:52.521Z,67.72
2018-06-22T12:10:40.078Z,67.85
2018-06-22T12:12:17.923Z,66.30
2018-06-22T12:13:55.572Z,66.76
2018-06-22T12:15:32.079Z,67.41
2018-06-22T12:17:08.665Z,67.71
2018-06-22T12:18:48.114Z,68.02
2018-06-22T12:20:28.665Z,67.81
2018-06-22T12:22:07.374Z,69.30
2018-06-22T12:23:44.592Z,69.19
2018-06-22T12:25:22.737Z,66.36
2018-06-22T12:27:01.340Z,68.20
2018-06-22T12:28:36.760Z,65.57
2018-06-22T12:30:16.491Z,65.54
2018-06-22T12:31:53.502Z,66.86
2018-06-22T12:33:31.444Z,65.60
2018-06-22T12:35:10.375Z,68.69
2018-06-22T12:36:48.513Z,68.42
2018-06-22T12:38:25.479Z,71.08
2018-06-22T12:40:00.361Z,69.68
2018-06-22T12:41:43.289Z,69.10
2018-06-22T12:43:32.380Z,70.21
2018-06-22T12:46:52.333Z,69.33
2018-06-22T12:48:31.719Z,70.25
2018-06-22T12:50:09.243Z,68.81
2018-06-22T12:51:45.518Z,70.43
2018-06-22T12:53:20.278Z,70.71
2018-06-22T12:54:59.393Z,70.48
2018-06-22T12:56:42.807Z,70.79
2018-06-22T12:58:22.271Z,72.06
2018-06-22T12:59:57.396Z,72.49
2018-06-22T17:50:39.935Z,62.74
2018-06-22T17:52:18.283Z,62.73
2018-06-22T17:54:06.163Z,62.98
2018-06-22T17:55:45.670Z,63.09
2018-06-22T17:57:28.808Z,62.24
2018-06-22T17:59:13.532Z,62.71
2018-06-22T18:00:59.177Z,61.95
2018-06-22T18:02:39.673Z,63.22
2018-06-22T18:04:25.617Z,62.66
2018-06-22T18:06:05.969Z,62.93
2018-06-22T18:07:50.582Z,63.38
2018-06-22T18:09:32.324Z,62.83
2018-06-22T18:11:14.520Z,61.65
2018-06-22T18:12:58.426Z,61.84
2018-06-22T18:14:36.543Z,62.95
2018-06-22T18:16:12.734Z,62.65
2018-06-22T18:17:51.536Z,62.75
2018-06-22T18:19:37.416Z,62.11
2018-06-22T18:21:16.838Z,62.11
2018-06-22T18:23:00.779Z,61.59
2018-06-22T18:24:43.827Z,62.18
2018-06-22T18:26:23.006Z,61.12
2018-06-22T18:27:59.786Z,62.94
2018-06-22T18:29:39.269Z,61.92
2018-06-22T18:31:21.472Z,61.38
2018-06-22T18:33:01.088Z,61.13
2018-06-22T18:34:38.251Z,61.46
2018-06-22T18:36:16.930Z,61.77
2018-06-22T18:37:55.395Z,62.73
2018-06-22T18:39:34.930Z,62.79
2018-06-22T18:41:14.210Z,62.43
2018-06-22T18:42:55.515Z,63.16
2018-06-22T18:46:17.416Z,63.19
2018-06-22T18:47:54.784Z,63.45
2018-06-22T18:49:33.487Z,63.50
2018-06-22T18:51:14.759Z,64.25
2018-06-22T18:52:59.933Z,63.37
2018-06-22T18:56:39.441Z,64.29
2018-06-22T18:59:21.725Z,64.13
2018-06-22T19:01:04.235Z,64.83
2018-06-22T19:02:46.585Z,64.38
2018-06-22T19:04:22.498Z,64.58
2018-06-22T19:06:00.089Z,63.75
2018-06-22T19:07:44.709Z,63.99
2018-06-22T19:09:25.699Z,64.31
2018-06-22T19:11:06.641Z,63.70
2018-06-22T19:12:50.566Z,63.53
2018-06-22T19:14:30.408Z,64.82
2018-06-22T19:16:06.128Z,63.41
2018-06-22T19:18:19.386Z,64.01
2018-06-22T19:20:00.786Z,64.54
2018-06-22T19:21:38.365Z,65.34
2018-06-22T19:23:17.211Z,65.61
2018-06-22T19:26:45.976Z,64.90
2018-06-22T19:28:27.455Z,64.70
2018-06-22T19:30:09.217Z,65.09
2018-06-22T19:31:46.534Z,65.68
2018-06-22T19:33:28.410Z,65.59
2018-06-22T19:35:14.473Z,66.37
2018-06-22T19:36:54.520Z,66.39
2018-06-22T19:38:34.816Z,65.76
2018-06-22T19:40:13.057Z,66.39
2018-06-22T19:41:56.428Z,66.80
2018-06-22T19:43:45.679Z,65.99
2018-06-22T19:45:28.933Z,66.67
2018-06-22T19:51:03.984Z,66.83
2018-06-22T19:52:45.427Z,67.57
2018-06-22T19:54:26.987Z,67.78
2018-06-22T19:56:08.499Z,67.72
2018-06-22T19:57:47.442Z,67.93
2018-06-22T19:59:24.884Z,68.23
2018-06-22T20:01:02.650Z,68.60
2018-06-22T20:02:40.541Z,68.45
2018-06-22T20:04:26.607Z,68.21
2018-06-22T20:06:08.722Z,69.06
2018-06-22T20:07:46.063Z,68.19
2018-06-22T20:09:29.637Z,68.89
2018-06-22T20:11:08.793Z,67.25
2018-06-22T20:12:50.942Z,67.05
2018-06-22T20:14:28.829Z,66.92
2018-06-22T20:16:10.786Z,67.13
2018-06-22T20:19:34.750Z,67.68
2018-06-22T20:21:19.270Z,67.90
2018-06-22T20:23:01.860Z,67.86
2018-06-22T20:24:43.721Z,68.92
2018-06-22T20:26:21.784Z,68.66
2018-06-22T20:27:59.762Z,69.07
2018-06-22T20:29:36.693Z,69.21
2018-06-22T20:31:16.339Z,69.53
2018-06-22T20:32:55.510Z,69.79
2018-06-22T20:34:45.503Z,70.18
2018-06-22T20:36:28.977Z,71.00
2018-06-22T20:38:16.911Z,70.85
2018-06-22T20:39:59.846Z,71.24
2018-06-22T20:41:40.541Z,71.67
2018-06-22T20:43:22.563Z,71.97
2018-06-22T20:45:05.653Z,72.34
2018-06-22T20:46:48.484Z,71.98
2018-06-22T20:48:30.366Z,73.09
2018-06-22T20:50:13.610Z,72.41
2018-06-22T20:51:53.234Z,73.06
2018-06-22T20:53:32.146Z,72.45
2018-06-22T20:55:11.884Z,73.29
2018-06-22T20:56:55.795Z,73.54
2018-06-22T20:58:32.723Z,73.65
2018-06-22T21:00:14.737Z,74.17
2018-06-22T21:01:55.680Z,73.90
2018-06-22T21:03:35.851Z,74.18
2018-06-22T21:05:14.854Z,74.28
2018-06-22T21:06:50.466Z,74.48
2018-06-22T21:08:27.566Z,74.46
2018-06-22T21:10:06.784Z,75.11
2018-06-22T21:11:46.401Z,75.40
2018-06-22T21:13:29.724Z,75.03
2018-06-22T21:15:14.190Z,75.69
2018-06-22T21:16:50.720Z,75.70
2018-06-22T21:18:28.332Z,75.98
2018-06-22T21:20:09.324Z,76.07
2018-06-22T21:21:51.757Z,76.73
2018-06-22T21:23:30.852Z,77.16
2018-06-22T21:25:16.192Z,77.08
2018-06-22T21:26:54.231Z,77.09
2018-06-22T21:28:41.462Z,77.03
2018-06-22T21:30:26.153Z,77.28
2018-06-22T21:34:12.968Z,77.35
2018-06-22T21:36:01.266Z,77.56
2018-06-22T21:37:41.749Z,78.00
2018-06-22T21:39:21.787Z,78.13
2018-06-22T21:41:03.448Z,78.38
2018-06-22T21:42:50.145Z,78.25
2018-06-22T21:44:30.175Z,78.74
2018-06-22T21:46:08.490Z,78.35
2018-06-22T21:47:44.833Z,78.48
2018-06-22T21:49:24.845Z,78.24
2018-06-22T21:51:00.384Z,78.49
2018-06-22T21:52:37.995Z,78.55
2018-06-22T21:54:16.072Z,78.68
2018-06-22T21:55:52.216Z,79.09
2018-06-22T21:57:28.039Z,78.66
2018-06-22T21:59:06.297Z,79.51
2018-06-22T22:00:42.536Z,79.48
2018-06-22T22:02:18.438Z,79.59
2018-06-22T22:03:56.757Z,79.99
2018-06-22T22:05:35.422Z,80.21
2018-06-22T22:07:13.981Z,80.33
2018-06-22T22:08:52.758Z,80.57
2018-06-22T22:10:33.248Z,80.60
2018-06-22T22:12:10.756Z,80.21
2018-06-22T22:13:54.613Z,80.41
2018-06-22T22:15:30.790Z,80.81
2018-06-22T22:17:10.240Z,81.31
2018-06-22T22:18:47.423Z,80.85
2018-06-22T22:20:23.745Z,80.91
2018-06-22T22:22:00.814Z,80.85
2018-06-22T22:23:37.466Z,81.26
2018-06-22T22:25:14.055Z,81.24
2018-06-22T22:26:48.876Z,80.95
2018-06-22T22:28:25.157Z,81.17
2018-06-22T22:30:00.992Z,81.31
2018-06-22T22:31:37.312Z,81.61
2018-06-22T22:35:04.830Z,81.66
2018-06-22T22:36:42.389Z,81.53
2018-06-22T22:38:21.315Z,81.64
2018-06-22T22:40:04.034Z,81.21
2018-06-22T22:41:39.269Z,81.56
2018-06-22T22:43:16.302Z,81.90
2018-06-22T22:44:53.286Z,81.79
2018-06-22T22:46:34.592Z,81.49
2018-06-22T22:48:10.885Z,81.39
2018-06-22T22:49:45.924Z,81.49
2018-06-22T22:51:20.854Z,81.24
2018-06-22T22:52:58.203Z,81.64
2018-06-22T22:54:34.105Z,81.87
2018-06-22T22:56:09.626Z,81.46
2018-06-22T22:57:47.246Z,81.68
2018-06-22T22:59:23.824Z,82.06
2018-06-22T23:01:02.681Z,82.07
2018-06-22T23:02:40.142Z,82.12
2018-06-22T23:04:17.068Z,82.35
2018-06-22T23:05:53.936Z,82.13
2018-06-22T23:07:29.552Z,82.13
2018-06-22T23:09:08.328Z,82.29
2018-06-22T23:10:47.747Z,81.79
2018-06-22T23:12:24.775Z,82.17
2018-06-22T23:14:01.318Z,82.10
2018-06-22T23:15:37.607Z,81.97
2018-06-22T23:17:15.599Z,82.19
2018-06-22T23:18:57.321Z,82.23
2018-06-22T23:20:33.822Z,81.87
2018-06-22T23:22:09.053Z,82.35
2018-06-22T23:23:45.550Z,82.41
2018-06-22T23:25:22.246Z,82.54
2018-06-22T23:26:57.397Z,82.62
2018-06-22T23:28:34.030Z,82.17
2018-06-22T23:30:10.212Z,82.22
2018-06-22T23:31:51.618Z,82.20
2018-06-22T23:33:28.695Z,82.05
2018-06-22T23:35:03.815Z,82.13
2018-06-22T23:36:40.051Z,82.61
2018-06-22T23:38:17.477Z,82.62
2018-06-22T23:39:53.819Z,82.88
2018-06-22T23:41:32.391Z,82.99
2018-06-22T23:43:10.909Z,82.83
2018-06-22T23:44:46.119Z,82.88
2018-06-22T23:46:21.099Z,82.92
2018-06-22T23:47:58.633Z,83.00
2018-06-22T23:49:37.309Z,82.63
2018-06-22T23:51:12.507Z,82.71
2018-06-22T23:52:50.052Z,82.67
2018-06-22T23:54:26.117Z,83.09
2018-06-22T23:56:02.614Z,82.80
2018-06-22T23:57:37.817Z,82.96
2018-06-22T23:59:13.225Z,82.97
